Time;durP1;ratioP1;P1;durP2;ratioP2;P2;SDS_P1;SDS_P2;PMS_P1;PMS_P2;Temp;Humidity;BMP_temperature;BMP_pressure;BME280_temperature;BME280_humidity;BME280_pressure;Samples;Min_cycle;Max_cycle;Signal;HPM_P1;HPM_P2
2023/05/20 00:01:58;;;;;;;1.90;1.27;;;12.20;99.90;;;;;;5093679;28;20243;-68
2023/05/20 00:04:24;;;;;;;3.07;1.60;;;12.10;99.90;;;;;;5093623;28;20407;-68
2023/05/20 00:06:49;;;;;;;2.33;1.73;;;12.10;99.90;;;;;;5093565;28;20182;-68
2023/05/20 00:09:16;;;;;;;2.77;2.23;;;12.10;99.90;;;;;;5094146;28;20626;-68
2023/05/20 00:11:41;;;;;;;4.77;1.90;;;12.10;99.90;;;;;;5093568;28;20168;-68
2023/05/20 00:14:07;;;;;;;5.00;1.73;;;12.00;99.90;;;;;;5093457;28;20431;-68
2023/05/20 00:16:33;;;;;;;2.07;1.60;;;12.00;99.90;;;;;;5093418;28;20181;-68
2023/05/20 00:18:58;;;;;;;1.63;1.37;;;12.00;99.90;;;;;;5093213;28;20173;-68
2023/05/20 00:21:24;;;;;;;3.03;1.67;;;12.00;99.90;;;;;;5093340;28;20674;-67
2023/05/20 00:23:50;;;;;;;3.27;1.47;;;12.00;99.90;;;;;;5093333;28;20204;-67
2023/05/20 00:26:15;;;;;;;3.73;1.70;;;11.90;99.90;;;;;;5093316;28;20162;-68
2023/05/20 00:28:41;;;;;;;1.87;1.67;;;11.90;99.90;;;;;;5074762;28;20185;-67
2023/05/20 00:31:07;;;;;;;2.13;1.23;;;11.90;99.90;;;;;;5093194;28;20227;-68
2023/05/20 00:33:33;;;;;;;1.80;1.57;;;11.90;99.90;;;;;;5093132;28;20157;-67
2023/05/20 00:35:59;;;;;;;1.53;1.30;;;11.90;99.90;;;;;;5093023;28;20168;-68
2023/05/20 00:38:24;;;;;;;2.53;1.33;;;11.90;99.90;;;;;;5092720;28;20415;-67
2023/05/20 00:40:50;;;;;;;1.40;1.30;;;11.80;99.90;;;;;;5092999;28;20283;-68
2023/05/20 00:43:15;;;;;;;1.93;1.40;;;11.80;99.90;;;;;;5092897;28;20207;-68
2023/05/20 00:45:41;;;;;;;1.83;1.50;;;11.80;99.90;;;;;;5092961;28;20166;-68
2023/05/20 00:48:08;;;;;;;2.27;1.63;;;11.80;99.90;;;;;;5092553;28;20714;-68
2023/05/20 00:50:34;;;;;;;1.60;1.50;;;11.80;99.90;;;;;;5092923;28;20170;-67
2023/05/20 00:53:00;;;;;;;1.73;1.30;;;11.70;99.90;;;;;;5092784;28;20781;-68
2023/05/20 00:55:25;;;;;;;1.67;1.43;;;11.70;99.90;;;;;;5092538;28;20499;-68
2023/05/20 00:57:52;;;;;;;1.67;1.20;;;11.70;99.90;;;;;;5092639;28;20709;-68
2023/05/20 01:00:17;;;;;;;3.03;1.47;;;11.70;99.90;;;;;;5092662;28;20166;-68
2023/05/20 01:02:43;;;;;;;1.83;1.40;;;11.70;99.90;;;;;;5092518;28;20451;-68
2023/05/20 01:05:09;;;;;;;2.70;1.77;;;11.60;99.90;;;;;;5092630;28;20634;-68
2023/05/20 01:07:35;;;;;;;2.40;1.83;;;11.60;99.90;;;;;;5092261;28;20548;-68
2023/05/20 01:10:00;;;;;;;1.80;1.37;;;11.60;99.90;;;;;;5092431;28;20679;-67
2023/05/20 01:12:30;;;;;;;1.87;1.30;;;11.60;99.90;;;;;;5092550;28;20230;-67
2023/05/20 01:15:00;;;;;;;1.90;1.13;;;11.50;99.90;;;;;;5092443;28;20668;-68
2023/05/20 01:17:28;;;;;;;1.60;1.40;;;11.50;99.90;;;;;;5073932;28;20506;-68
2023/05/20 01:19:55;;;;;;;1.60;0.97;;;11.50;99.90;;;;;;5092406;28;20419;-68
2023/05/20 01:22:27;;;;;;;1.50;1.33;;;11.50;99.90;;;;;;5092205;28;20440;-68
2023/05/20 01:24:53;;;;;;;2.23;1.70;;;11.40;99.90;;;;;;5092333;28;20406;-68
2023/05/20 01:27:21;;;;;;;1.83;1.40;;;11.40;99.90;;;;;;5092104;28;20423;-68
2023/05/20 01:29:49;;;;;;;2.57;2.20;;;11.40;99.90;;;;;;5092178;28;20154;-67
2023/05/20 01:32:22;;;;;;;2.37;1.60;;;11.40;99.90;;;;;;5092104;28;20408;-67
2023/05/20 01:34:50;;;;;;;2.80;1.63;;;11.30;99.90;;;;;;5092063;28;20399;-68
2023/05/20 01:37:18;;;;;;;1.50;1.40;;;11.30;99.90;;;;;;5091864;28;20510;-68
2023/05/20 01:39:45;;;;;;;2.40;1.50;;;11.30;99.90;;;;;;5092039;28;20407;-68
2023/05/20 01:42:12;;;;;;;2.50;1.67;;;11.30;99.90;;;;;;5073914;28;20575;-68
2023/05/20 01:44:38;;;;;;;1.93;1.63;;;11.30;99.90;;;;;;5091892;28;20396;-68
2023/05/20 01:47:04;;;;;;;1.63;1.40;;;11.30;99.90;;;;;;5092112;28;20420;-68
2023/05/20 01:49:30;;;;;;;1.90;1.50;;;11.20;99.90;;;;;;5091932;28;20392;-68
2023/05/20 01:51:56;;;;;;;2.43;1.67;;;11.20;99.90;;;;;;5092106;28;20423;-68
2023/05/20 01:54:22;;;;;;;2.10;1.30;;;11.20;99.90;;;;;;5091887;28;20223;-68
2023/05/20 01:56:49;;;;;;;1.83;1.70;;;11.20;99.90;;;;;;5092094;28;20794;-68
2023/05/20 01:59:14;;;;;;;1.90;1.50;;;11.20;99.90;;;;;;5091665;28;20215;-68
2023/05/20 02:01:40;;;;;;;1.67;1.57;;;11.20;99.90;;;;;;5091781;28;20439;-68
2023/05/20 02:04:05;;;;;;;1.77;1.30;;;11.20;99.90;;;;;;5091823;28;20232;-68
2023/05/20 02:06:31;;;;;;;1.73;1.63;;;11.10;99.90;;;;;;5091774;28;20584;-68
2023/05/20 02:08:56;;;;;;;2.07;1.87;;;11.10;99.90;;;;;;5094431;28;20462;-68
2023/05/20 02:11:22;;;;;;;1.80;1.70;;;11.10;99.90;;;;;;5095974;28;20165;-68
2023/05/20 02:13:49;;;;;;;1.70;1.60;;;11.10;99.90;;;;;;5095636;28;20558;-68
2023/05/20 02:16:15;;;;;;;2.83;2.17;;;11.10;99.90;;;;;;5095945;28;20158;-68
2023/05/20 02:18:41;;;;;;;1.47;1.20;;;11.10;99.90;;;;;;5095337;28;20469;-68
2023/05/20 02:21:07;;;;;;;2.27;1.53;;;11.00;99.90;;;;;;5095803;28;20162;-68
2023/05/20 02:23:33;;;;;;;2.60;1.67;;;11.00;99.90;;;;;;5095601;28;20462;-68
2023/05/20 02:25:58;;;;;;;3.43;1.50;;;11.00;99.90;;;;;;5095663;28;20189;-68
2023/05/20 02:28:24;;;;;;;7.50;2.00;;;11.00;99.90;;;;;;5095388;28;20423;-68
2023/05/20 02:30:52;;;;;;;1.60;1.37;;;11.00;99.90;;;;;;5095515;28;20173;-68
2023/05/20 02:33:18;;;;;;;3.97;1.60;;;11.00;99.90;;;;;;5095479;28;20193;-68
2023/05/20 02:35:44;;;;;;;2.47;1.67;;;10.90;99.90;;;;;;5095665;28;20516;-68
2023/05/20 02:38:10;;;;;;;2.27;1.50;;;10.90;99.90;;;;;;5095241;28;20196;-68
2023/05/20 02:40:36;;;;;;;1.50;1.40;;;10.90;99.90;;;;;;5095363;28;20162;-68
2023/05/20 02:43:02;;;;;;;2.23;1.40;;;10.90;99.90;;;;;;5095290;28;20508;-68
2023/05/20 02:45:27;;;;;;;1.77;1.30;;;10.80;99.90;;;;;;5095311;28;20357;-68
2023/05/20 02:47:53;;;;;;;4.23;1.90;;;10.80;99.90;;;;;;5094855;28;20774;-67
2023/05/20 02:50:18;;;;;;;2.23;2.00;;;10.80;99.90;;;;;;5095169;28;20245;-66
2023/05/20 02:52:44;;;;;;;2.03;1.73;;;10.80;99.90;;;;;;5095157;28;20639;-67
2023/05/20 02:55:10;;;;;;;2.23;2.00;;;10.70;99.90;;;;;;5095147;28;20166;-67
2023/05/20 02:57:39;;;;;;;2.40;2.10;;;10.70;99.90;;;;;;5094995;28;20220;-68
2023/05/20 03:00:06;;;;;;;2.03;1.77;;;10.70;99.90;;;;;;5094910;28;20409;-67
2023/05/20 03:02:33;;;;;;;2.40;1.30;;;10.60;99.90;;;;;;5094880;28;21037;-67
2023/05/20 03:04:58;;;;;;;1.97;1.80;;;10.60;99.90;;;;;;5094959;28;20391;-68
2023/05/20 03:07:24;;;;;;;2.23;1.87;;;10.60;99.90;;;;;;5094563;28;20427;-68
2023/05/20 03:09:50;;;;;;;1.90;1.30;;;10.60;99.90;;;;;;5094853;28;20161;-67
2023/05/20 03:12:16;;;;;;;3.03;2.73;;;10.60;99.90;;;;;;5094831;28;20525;-68
2023/05/20 03:14:41;;;;;;;2.17;1.77;;;10.60;99.90;;;;;;5094529;28;20459;-67
2023/05/20 03:17:08;;;;;;;3.13;1.67;;;10.50;99.90;;;;;;5094205;28;20185;-67
2023/05/20 03:19:34;;;;;;;2.10;1.90;;;10.60;99.90;;;;;;5094653;28;20534;-68
2023/05/20 03:22:00;;;;;;;2.40;1.97;;;10.50;99.90;;;;;;5094444;28;20451;-67
2023/05/20 03:24:26;;;;;;;2.90;1.93;;;10.50;99.90;;;;;;5094525;28;20173;-67
2023/05/20 03:26:51;;;;;;;2.07;1.70;;;10.50;99.90;;;;;;5094096;28;20188;-67
2023/05/20 03:29:17;;;;;;;2.93;1.87;;;10.50;99.90;;;;;;5094340;28;20761;-68
2023/05/20 03:31:42;;;;;;;2.70;1.67;;;10.50;99.90;;;;;;5076124;28;20656;-67
2023/05/20 03:34:08;;;;;;;2.30;1.73;;;10.40;99.90;;;;;;5094272;28;20166;-68
2023/05/20 03:36:34;;;;;;;2.10;1.93;;;10.40;99.90;;;;;;5094283;28;20523;-67
2023/05/20 03:39:00;;;;;;;1.70;1.50;;;10.40;99.90;;;;;;5094030;28;20166;-67
2023/05/20 03:41:26;;;;;;;2.33;1.60;;;10.50;99.90;;;;;;5094065;28;20673;-67
2023/05/20 03:43:52;;;;;;;1.63;1.23;;;10.40;99.90;;;;;;5094046;28;20427;-68
2023/05/20 03:46:17;;;;;;;2.60;2.10;;;10.50;99.90;;;;;;5094015;28;20170;-68
2023/05/20 03:48:43;;;;;;;1.97;1.77;;;10.50;99.90;;;;;;5093837;28;20619;-67
2023/05/20 03:51:08;;;;;;;2.00;1.70;;;10.50;99.90;;;;;;5094184;28;20197;-68
2023/05/20 03:53:34;;;;;;;2.33;1.80;;;10.50;99.90;;;;;;5093924;28;20699;-67
2023/05/20 03:56:00;;;;;;;2.33;1.90;;;10.50;99.90;;;;;;5093976;28;20166;-68
2023/05/20 03:58:28;;;;;;;3.00;1.80;;;10.60;99.90;;;;;;5093474;28;20193;-68
2023/05/20 04:00:54;;;;;;;2.27;1.97;;;10.60;99.90;;;;;;5093789;28;20168;-67
2023/05/20 04:03:19;;;;;;;2.80;2.10;;;10.70;99.90;;;;;;5093765;28;20495;-68
2023/05/20 04:05:45;;;;;;;3.03;1.67;;;10.80;99.90;;;;;;5093724;28;20403;-67
2023/05/20 04:08:12;;;;;;;2.93;2.27;;;10.80;99.90;;;;;;5093325;28;20181;-68
2023/05/20 04:10:41;;;;;;;3.40;1.80;;;10.90;99.90;;;;;;5093565;28;20158;-67
2023/05/20 04:13:07;;;;;;;3.23;2.07;;;11.00;99.90;;;;;;5093384;28;20569;-68
2023/05/20 04:15:35;;;;;;;3.70;1.90;;;11.00;99.90;;;;;;5093507;28;20482;-68
2023/05/20 04:18:01;;;;;;;2.60;1.70;;;11.20;99.90;;;;;;5093232;28;20201;-67
2023/05/20 04:20:27;;;;;;;2.37;2.07;;;11.20;99.90;;;;;;5093708;28;20402;-68
2023/05/20 04:22:53;;;;;;;7.63;2.10;;;11.40;99.90;;;;;;5093299;28;20196;-68
2023/05/20 04:25:18;;;;;;;2.77;2.17;;;11.40;99.90;;;;;;5093324;28;20157;-67
2023/05/20 04:27:44;;;;;;;4.00;2.23;;;11.50;99.90;;;;;;5092762;28;20472;-67
2023/05/20 04:30:11;;;;;;;2.00;1.80;;;11.60;99.90;;;;;;5093073;28;20574;-68
2023/05/20 04:32:37;;;;;;;4.17;2.30;;;11.70;99.90;;;;;;5092915;28;20450;-68
2023/05/20 04:35:07;;;;;;;1.83;1.60;;;11.80;99.90;;;;;;5093092;28;20399;-67
2023/05/20 04:37:33;;;;;;;2.80;1.97;;;11.90;99.90;;;;;;5092967;28;20426;-68
2023/05/20 04:40:01;;;;;;;3.73;2.60;;;12.00;99.90;;;;;;5093093;28;20800;-67
2023/05/20 04:42:28;;;;;;;2.27;1.80;;;12.10;99.90;;;;;;5092735;28;20591;-67
2023/05/20 04:44:54;;;;;;;2.50;2.30;;;12.20;99.90;;;;;;5093161;28;20960;-68
2023/05/20 04:47:19;;;;;;;3.40;2.20;;;12.20;99.90;;;;;;5092626;28;20521;-67
2023/05/20 04:49:45;;;;;;;4.30;2.10;;;12.30;99.90;;;;;;5092829;28;20673;-67
2023/05/20 04:52:10;;;;;;;2.30;1.60;;;12.40;99.90;;;;;;5092917;28;20162;-67
2023/05/20 04:54:36;;;;;;;2.83;2.37;;;12.50;99.90;;;;;;5092768;28;20162;-67
2023/05/20 04:57:01;;;;;;;2.20;2.00;;;12.60;99.90;;;;;;5092295;28;20306;-67
2023/05/20 04:59:27;;;;;;;3.83;2.07;;;12.60;99.90;;;;;;5092743;28;20165;-68
2023/05/20 05:01:52;;;;;;;2.80;2.60;;;12.70;99.90;;;;;;5092648;28;20551;-67
2023/05/20 05:04:18;;;;;;;2.83;2.33;;;12.80;99.90;;;;;;5092708;28;20168;-68
2023/05/20 05:06:43;;;;;;;4.03;2.50;;;12.90;99.90;;;;;;5092504;28;20190;-68
2023/05/20 05:09:09;;;;;;;2.47;2.27;;;12.90;99.90;;;;;;5092331;28;20524;-67
2023/05/20 05:11:34;;;;;;;3.27;2.50;;;13.00;99.90;;;;;;5092318;28;20174;-67
2023/05/20 05:14:00;;;;;;;2.03;1.80;;;13.10;99.90;;;;;;5092333;28;20181;-68
2023/05/20 05:16:25;;;;;;;3.83;2.20;;;13.10;99.90;;;;;;5092432;28;20530;-68
2023/05/20 05:18:51;;;;;;;4.23;2.30;;;13.20;99.90;;;;;;5092010;28;20575;-68
2023/05/20 05:21:17;;;;;;;3.60;2.80;;;13.20;99.90;;;;;;5092231;28;20170;-68
2023/05/20 05:23:42;;;;;;;4.07;2.30;;;13.40;99.90;;;;;;5092239;28;20219;-68
2023/05/20 05:26:08;;;;;;;2.30;2.07;;;13.60;99.90;;;;;;5092582;28;20682;-68
2023/05/20 05:28:34;;;;;;;3.10;2.60;;;13.80;99.90;;;;;;5091822;28;20181;-68
2023/05/20 05:31:01;;;;;;;2.83;2.23;;;14.00;99.90;;;;;;5092312;28;20189;-68
2023/05/20 05:33:27;;;;;;;2.60;2.03;;;14.20;99.90;;;;;;5092153;28;20550;-68
2023/05/20 05:35:52;;;;;;;2.50;2.00;;;14.30;99.90;;;;;;5092060;28;20414;-68
2023/05/20 05:38:18;;;;;;;2.13;1.73;;;14.40;99.90;;;;;;5091834;28;20419;-68
2023/05/20 05:40:43;;;;;;;2.63;2.43;;;14.60;99.90;;;;;;5091956;28;20169;-68
2023/05/20 05:43:09;;;;;;;2.80;1.60;;;14.90;99.90;;;;;;5091146;28;20257;-68
2023/05/20 05:45:35;;;;;;;2.50;1.97;;;15.30;99.90;;;;;;5091820;28;20161;-68
2023/05/20 05:48:00;;;;;;;3.23;2.57;;;15.60;99.90;;;;;;5091532;28;20181;-69
2023/05/20 05:50:26;;;;;;;2.40;2.20;;;15.80;99.90;;;;;;5092389;28;20193;-68
2023/05/20 05:52:51;;;;;;;2.23;1.80;;;16.20;99.90;;;;;;5091869;28;20628;-68
2023/05/20 05:55:17;;;;;;;2.27;1.93;;;16.70;99.90;;;;;;5091884;28;20169;-69
2023/05/20 05:57:42;;;;;;;2.70;2.13;;;17.30;99.90;;;;;;5091586;28;20185;-68
2023/05/20 06:00:09;;;;;;;2.33;1.80;;;17.80;99.90;;;;;;5092076;28;20673;-68
2023/05/20 06:02:35;;;;;;;2.10;1.80;;;18.30;99.90;;;;;;5091749;28;20558;-67
2023/05/20 06:05:04;;;;;;;2.10;1.90;;;18.40;99.90;;;;;;5091764;28;20404;-68
2023/05/20 06:07:29;;;;;;;5.00;2.20;;;18.50;99.90;;;;;;5091420;28;20177;-68
2023/05/20 06:09:55;;;;;;;2.10;1.87;;;18.50;99.90;;;;;;5091685;28;20404;-68
2023/05/20 06:12:21;;;;;;;3.77;2.07;;;18.50;99.90;;;;;;5091658;28;20172;-68
2023/05/20 06:14:47;;;;;;;2.33;1.80;;;18.60;99.90;;;;;;5091661;28;20177;-68
2023/05/20 06:17:12;;;;;;;2.57;2.10;;;18.70;99.90;;;;;;5091478;28;20197;-68
2023/05/20 06:19:38;;;;;;;2.73;2.53;;;18.80;99.90;;;;;;5091664;28;20396;-68
2023/05/20 06:22:04;;;;;;;2.87;2.03;;;19.00;99.90;;;;;;5091528;28;20266;-68
2023/05/20 06:24:29;;;;;;;3.17;2.87;;;19.10;99.90;;;;;;5092085;28;20617;-68
2023/05/20 06:26:55;;;;;;;2.10;1.90;;;19.20;99.90;;;;;;5091216;28;20185;-69
2023/05/20 06:29:20;;;;;;;2.90;2.10;;;19.30;99.90;;;;;;5091513;28;20166;-68
2023/05/20 06:31:46;;;;;;;2.00;1.80;;;19.40;99.90;;;;;;5091656;28;20173;-68
2023/05/20 06:34:11;;;;;;;2.93;1.90;;;19.50;99.90;;;;;;5073434;28;20178;-68
2023/05/20 06:36:37;;;;;;;3.37;1.87;;;19.60;99.90;;;;;;5091438;28;20170;-68
2023/05/20 06:39:05;;;;;;;4.70;2.40;;;19.70;99.90;;;;;;5091159;28;20174;-68
2023/05/20 06:41:30;;;;;;;1.90;1.80;;;19.80;99.90;;;;;;5091353;28;20187;-68
2023/05/20 06:43:56;;;;;;;1.87;1.77;;;19.80;99.90;;;;;;5091542;28;20424;-68
2023/05/20 06:46:21;;;;;;;2.03;1.83;;;20.00;99.90;;;;;;5091433;28;20249;-69
2023/05/20 06:48:47;;;;;;;2.20;2.00;;;20.10;99.90;;;;;;5091232;28;20165;-68
2023/05/20 06:51:13;;;;;;;3.00;1.70;;;20.20;99.90;;;;;;5091410;28;20169;-68
2023/05/20 06:53:38;;;;;;;2.33;1.87;;;20.40;99.90;;;;;;5091708;28;20165;-69
2023/05/20 06:56:04;;;;;;;2.40;2.20;;;20.70;99.90;;;;;;5095026;28;20166;-68
2023/05/20 06:58:29;;;;;;;3.80;1.93;;;20.80;99.90;;;;;;5094629;28;20217;-68
2023/05/20 07:00:55;;;;;;;2.27;2.07;;;21.00;99.90;;;;;;5094986;28;20170;-68
2023/05/20 07:03:20;;;;;;;2.40;2.20;;;21.10;98.90;;;;;;5076712;28;20201;-68
2023/05/20 07:05:46;;;;;;;2.70;2.23;;;21.10;98.20;;;;;;5094943;28;20218;-68
2023/05/20 07:08:12;;;;;;;4.07;2.90;;;21.20;97.60;;;;;;5094459;28;20192;-68
2023/05/20 07:10:37;;;;;;;2.40;1.70;;;21.20;96.70;;;;;;5094792;28;20466;-68
2023/05/20 07:13:03;;;;;;;5.57;1.90;;;21.20;96.30;;;;;;5094581;28;20189;-68
2023/05/20 07:15:28;;;;;;;2.60;2.40;;;21.20;95.80;;;;;;5094691;28;20537;-68
2023/05/20 07:17:54;;;;;;;3.37;2.90;;;21.30;94.10;;;;;;5094468;28;20189;-69
2023/05/20 07:20:20;;;;;;;1.90;1.80;;;21.40;93.70;;;;;;5094581;28;20165;-69
2023/05/20 07:22:47;;;;;;;2.63;2.00;;;21.50;92.40;;;;;;5076306;28;20193;-69
2023/05/20 07:25:13;;;;;;;3.27;2.20;;;21.70;91.40;;;;;;5094430;28;20252;-68
2023/05/20 07:27:39;;;;;;;4.27;2.33;;;22.00;91.20;;;;;;5094038;28;20423;-68
2023/05/20 07:30:05;;;;;;;3.60;2.30;;;22.50;91.30;;;;;;5094463;28;20910;-68
2023/05/20 07:32:30;;;;;;;2.70;2.10;;;23.10;90.30;;;;;;5094411;28;20157;-68
2023/05/20 07:34:56;;;;;;;2.03;1.83;;;23.70;85.60;;;;;;5094314;28;20981;-68
2023/05/20 07:37:21;;;;;;;2.60;2.27;;;24.50;83.70;;;;;;5093886;28;20735;-68
2023/05/20 07:39:47;;;;;;;2.30;1.90;;;25.50;80.20;;;;;;5094203;28;20172;-69
2023/05/20 07:42:12;;;;;;;3.10;2.00;;;26.60;71.70;;;;;;5094107;28;20250;-69
2023/05/20 07:44:38;;;;;;;3.37;1.83;;;27.30;65.00;;;;;;5094246;28;20184;-67
2023/05/20 07:47:04;;;;;;;1.80;1.57;;;27.70;59.70;;;;;;5093791;28;20235;-67
2023/05/20 07:49:30;;;;;;;3.33;1.70;;;28.00;57.00;;;;;;5094038;28;20214;-67
2023/05/20 07:51:55;;;;;;;3.73;2.37;;;28.50;55.30;;;;;;5093916;28;20392;-67
2023/05/20 07:54:22;;;;;;;3.10;2.30;;;29.30;53.50;;;;;;5093900;28;20168;-67
2023/05/20 07:56:47;;;;;;;2.23;1.90;;;30.00;51.30;;;;;;5093823;28;20256;-67
2023/05/20 07:59:13;;;;;;;2.73;2.40;;;30.40;49.20;;;;;;5093609;28;20491;-67
2023/05/20 08:01:40;;;;;;;2.10;2.00;;;30.70;47.70;;;;;;5093734;28;20161;-68
2023/05/20 08:04:06;;;;;;;2.90;2.03;;;31.10;46.80;;;;;;5093732;28;20253;-67
2023/05/20 08:06:31;;;;;;;3.53;2.13;;;31.70;45.20;;;;;;5092681;28;20491;-67
2023/05/20 08:08:57;;;;;;;2.20;1.90;;;32.30;43.60;;;;;;5093379;28;20219;-67
2023/05/20 08:11:23;;;;;;;2.43;2.20;;;33.00;42.70;;;;;;5093649;28;20173;-68
2023/05/20 08:13:48;;;;;;;2.33;2.13;;;33.70;41.10;;;;;;5093712;28;20177;-68
2023/05/20 08:16:14;;;;;;;2.30;2.10;;;34.50;40.00;;;;;;5093432;28;20178;-68
2023/05/20 08:18:40;;;;;;;2.67;2.00;;;35.20;37.50;;;;;;5093138;28;20200;-67
2023/05/20 08:21:09;;;;;;;2.57;1.90;;;35.50;36.30;;;;;;5093354;28;20403;-68
2023/05/20 08:23:35;;;;;;;2.30;2.20;;;35.70;35.50;;;;;;5093308;28;20201;-67
2023/05/20 08:26:02;;;;;;;2.17;1.97;;;36.20;35.10;;;;;;5093425;28;20414;-67
2023/05/20 08:28:28;;;;;;;11.80;2.20;;;36.80;34.10;;;;;;5093493;28;20996;-68
2023/05/20 08:30:54;;;;;;;2.20;2.10;;;37.10;33.70;;;;;;5093378;28;20499;-67
2023/05/20 08:33:21;;;;;;;2.47;2.17;;;37.20;32.80;;;;;;5093468;28;20498;-68
2023/05/20 08:35:47;;;;;;;2.23;2.00;;;37.30;32.20;;;;;;5093152;28;20165;-67
2023/05/20 08:38:13;;;;;;;2.40;2.00;;;37.40;31.40;;;;;;5092796;28;20426;-68
2023/05/20 08:40:39;;;;;;;1.73;1.40;;;37.60;30.90;;;;;;5093188;28;20423;-67
2023/05/20 08:43:04;;;;;;;2.67;2.47;;;37.30;30.30;;;;;;5093126;28;20205;-67
2023/05/20 08:45:36;;;;;;;2.13;1.93;;;36.70;30.20;;;;;;5092997;28;20534;-67
2023/05/20 08:48:03;;;;;;;2.00;1.83;;;36.40;31.20;;;;;;5092583;28;20611;-68
2023/05/20 08:50:29;;;;;;;2.00;1.90;;;36.70;31.80;;;;;;5092716;28;20431;-67
2023/05/20 08:52:55;;;;;;;2.63;2.43;;;37.40;31.30;;;;;;5092832;28;20485;-67
2023/05/20 08:55:32;;;;;;;2.17;1.97;;;38.00;30.00;;;;;;5093009;28;20166;-68
2023/05/20 08:57:58;;;;;;;2.40;2.27;;;37.90;29.60;;;;;;5092864;28;20185;-68
2023/05/20 09:00:27;;;;;;;2.87;2.30;;;37.30;29.80;;;;;;5092663;28;20410;-67
2023/05/20 09:02:53;;;;;;;4.93;2.23;;;37.00;30.00;;;;;;5092479;28;20212;-67
2023/05/20 09:05:20;;;;;;;2.10;1.90;;;36.80;30.20;;;;;;5092582;28;20880;-67
2023/05/20 09:07:46;;;;;;;3.63;2.20;;;37.00;30.30;;;;;;5092199;28;20462;-67
2023/05/20 09:10:12;;;;;;;3.20;2.33;;;37.90;30.80;;;;;;5092511;28;20412;-67
2023/05/20 09:12:38;;;;;;;2.40;2.20;;;39.20;30.30;;;;;;5092335;28;20619;-68
2023/05/20 09:15:03;;;;;;;4.93;2.87;;;40.90;29.20;;;;;;5092530;28;20440;-68
2023/05/20 09:17:29;;;;;;;3.13;2.40;;;42.50;28.40;;;;;;5091868;28;20197;-68
2023/05/20 09:19:55;;;;;;;2.70;2.50;;;43.90;27.40;;;;;;5092421;28;20176;-68
2023/05/20 09:22:25;;;;;;;4.23;2.57;;;44.40;25.80;;;;;;5092212;28;20201;-68
2023/05/20 09:24:52;;;;;;;2.37;2.17;;;44.50;25.30;;;;;;5092209;28;20173;-67
2023/05/20 09:27:19;;;;;;;3.00;2.80;;;44.90;25.20;;;;;;5091950;28;20423;-68
2023/05/20 09:29:47;;;;;;;3.60;2.77;;;45.30;24.50;;;;;;5092127;28;20447;-68
2023/05/20 09:32:13;;;;;;;3.03;2.23;;;44.70;24.10;;;;;;5092186;28;20382;-68
2023/05/20 09:34:40;;;;;;;3.03;2.37;;;44.00;24.40;;;;;;5092188;28;20389;-68
2023/05/20 09:37:06;;;;;;;2.70;2.50;;;43.60;24.60;;;;;;5091895;28;20191;-68
2023/05/20 09:39:39;;;;;;;2.00;1.90;;;44.30;24.80;;;;;;5092321;28;20404;-68
2023/05/20 09:42:13;;;;;;;2.50;2.30;;;45.70;24.40;;;;;;5092217;28;20192;-69
2023/05/20 09:44:39;;;;;;;3.20;2.30;;;47.40;23.90;;;;;;5074022;28;20362;-69
2023/05/20 09:47:06;;;;;;;2.67;2.50;;;48.70;23.00;;;;;;5091694;28;20846;-69
2023/05/20 09:49:34;;;;;;;2.93;2.70;;;49.90;22.40;;;;;;5091825;28;20406;-69
2023/05/20 09:52:01;;;;;;;2.20;2.10;;;51.10;22.10;;;;;;5091934;28;20408;-68
2023/05/20 09:54:28;;;;;;;3.10;2.90;;;52.20;21.80;;;;;;5091891;28;20412;-68
2023/05/20 09:56:56;;;;;;;3.13;2.93;;;51.90;20.30;;;;;;5091433;28;20494;-68
2023/05/20 09:59:22;;;;;;;2.90;2.70;;;50.70;20.20;;;;;;5091868;28;20480;-68
2023/05/20 10:01:48;;;;;;;2.67;2.47;;;50.00;20.80;;;;;;5091788;28;20438;-69
2023/05/20 10:04:16;;;;;;;3.90;2.80;;;49.20;20.60;;;;;;5091798;28;20435;-68
2023/05/20 10:07:06;;;;;;;2.70;2.50;;;48.20;20.50;;;;;;5091750;28;20573;-68
2023/05/20 10:09:56;;;;;;;2.70;2.33;;;47.80;21.20;;;;;;5091732;28;20893;-68
2023/05/20 10:12:32;;;;;;;2.80;2.60;;;47.60;21.60;;;;;;5092143;28;20980;-68
2023/05/20 10:15:15;;;;;;;2.87;2.67;;;47.90;21.40;;;;;;5091824;28;20408;-68
2023/05/20 10:18:14;;;;;;;2.67;2.47;;;48.70;21.10;;;;;;5091885;28;20419;-69
2023/05/20 10:20:50;;;;;;;2.60;2.40;;;49.40;21.10;;;;;;5059975;28;20390;-68
2023/05/20 10:23:29;;;;;;;3.30;3.10;;;50.10;20.80;;;;;;5091745;28;20414;-69
2023/05/20 10:25:56;;;;;;;2.93;2.70;;;50.00;20.20;;;;;;5092098;28;20397;-68
2023/05/20 10:28:35;;;;;;;2.47;2.27;;;49.70;20.10;;;;;;5091234;28;20434;-69
2023/05/20 10:31:01;;;;;;;2.90;2.70;;;49.20;20.60;;;;;;5095651;28;20726;-69
2023/05/20 10:33:28;;;;;;;2.53;2.33;;;48.40;20.40;;;;;;5095507;28;20492;-69
2023/05/20 10:35:57;;;;;;;2.80;2.60;;;47.30;20.60;;;;;;5095505;28;20370;-68
2023/05/20 10:38:23;;;;;;;3.33;3.03;;;46.40;21.20;;;;;;5095031;28;20481;-69
2023/05/20 10:40:49;;;;;;;2.80;2.60;;;45.70;21.20;;;;;;5095375;28;20851;-69
2023/05/20 10:43:27;;;;;;;2.70;2.50;;;44.80;21.60;;;;;;5095413;28;20177;-68
2023/05/20 10:45:54;;;;;;;2.87;2.67;;;44.10;21.80;;;;;;5095438;28;20165;-68
2023/05/20 10:48:30;;;;;;;2.90;2.70;;;43.40;22.10;;;;;;5095379;28;20465;-68
2023/05/20 10:50:58;;;;;;;3.00;2.70;;;42.40;22.40;;;;;;5095320;28;20434;-68
2023/05/20 10:53:25;;;;;;;3.33;3.03;;;41.60;23.00;;;;;;5095180;28;20426;-68
2023/05/20 10:55:53;;;;;;;3.00;2.80;;;40.70;23.30;;;;;;5095200;28;20435;-68
2023/05/20 10:58:22;;;;;;;3.07;2.87;;;39.70;24.00;;;;;;5094815;28;20978;-68
2023/05/20 11:00:53;;;;;;;3.03;2.70;;;38.70;24.60;;;;;;5095118;28;20380;-68
2023/05/20 11:03:21;;;;;;;4.10;2.80;;;37.80;25.30;;;;;;5095086;28;20438;-67
2023/05/20 11:05:47;;;;;;;3.03;2.73;;;36.90;25.90;;;;;;5094895;28;20400;-68
2023/05/20 11:08:13;;;;;;;4.67;3.30;;;36.20;26.50;;;;;;5094554;28;20768;-68
2023/05/20 11:10:40;;;;;;;3.30;3.00;;;35.60;27.00;;;;;;5094742;28;20178;-68
2023/05/20 11:13:07;;;;;;;2.93;2.73;;;35.20;27.70;;;;;;5094420;28;20475;-68
2023/05/20 11:15:34;;;;;;;2.83;2.37;;;35.00;28.00;;;;;;5094682;28;20414;-68
2023/05/20 11:18:02;;;;;;;3.30;3.00;;;35.00;28.10;;;;;;5094318;28;20412;-68
2023/05/20 11:20:29;;;;;;;3.80;2.77;;;35.30;28.50;;;;;;5076472;28;20407;-68
2023/05/20 11:22:55;;;;;;;2.40;2.20;;;35.90;28.20;;;;;;5094544;28;20487;-67
2023/05/20 11:25:24;;;;;;;3.77;2.83;;;36.80;28.00;;;;;;5094549;28;20516;-67
2023/05/20 11:27:50;;;;;;;5.00;3.13;;;38.50;27.40;;;;;;5094158;28;20661;-68
2023/05/20 11:30:17;;;;;;;2.80;2.60;;;39.80;26.20;;;;;;5094502;28;20434;-67
2023/05/20 11:33:02;;;;;;;8.60;3.40;;;41.00;25.40;;;;;;5094233;28;20450;-67
2023/05/20 11:35:31;;;;;;;2.50;2.40;;;41.30;24.60;;;;;;5094252;28;20400;-69
2023/05/20 11:38:08;;;;;;;3.40;3.10;;;41.50;24.70;;;;;;5093976;28;20996;-68
2023/05/20 11:40:34;;;;;;;2.80;2.60;;;42.00;24.60;;;;;;5093032;28;20396;-68
2023/05/20 11:43:01;;;;;;;3.27;2.90;;;43.00;24.40;;;;;;5094191;28;20378;-68
2023/05/20 11:45:27;;;;;;;3.30;3.00;;;43.60;23.70;;;;;;5093985;28;20924;-68
2023/05/20 11:48:04;;;;;;;3.37;3.07;;;44.00;23.50;;;;;;5093693;28;20510;-68
2023/05/20 11:50:40;;;;;;;3.47;3.17;;;44.10;23.00;;;;;;5094093;28;20273;-68
2023/05/20 11:53:08;;;;;;;2.80;2.60;;;43.50;23.00;;;;;;5093976;28;20949;-68
2023/05/20 11:55:44;;;;;;;3.60;3.30;;;43.10;23.30;;;;;;5093787;28;20452;-68
2023/05/20 11:58:09;;;;;;;3.03;2.73;;;42.40;23.10;;;;;;5093722;28;20502;-68
2023/05/20 12:00:35;;;;;;;3.30;3.00;;;41.60;23.90;;;;;;5093968;28;20471;-68
2023/05/20 12:03:00;;;;;;;3.70;3.20;;;40.90;24.10;;;;;;5093783;28;20230;-68
2023/05/20 12:05:26;;;;;;;3.63;3.33;;;40.30;24.60;;;;;;5093779;28;20165;-67
2023/05/20 12:07:51;;;;;;;3.00;2.80;;;40.30;25.00;;;;;;5093400;28;20220;-67
2023/05/20 12:10:17;;;;;;;3.50;3.30;;;40.30;24.90;;;;;;5093520;28;20260;-68
2023/05/20 12:12:44;;;;;;;3.53;3.23;;;40.30;25.00;;;;;;5093383;28;20284;-68
2023/05/20 12:15:10;;;;;;;4.07;3.03;;;40.10;25.10;;;;;;5093543;28;20176;-68
2023/05/20 12:17:50;;;;;;;3.97;3.67;;;39.60;25.30;;;;;;5093123;28;20427;-68
2023/05/20 12:20:17;;;;;;;4.03;3.67;;;39.10;25.70;;;;;;5093666;28;20399;-69
2023/05/20 12:22:46;;;;;;;2.93;2.73;;;38.90;26.00;;;;;;5093198;28;20407;-69
2023/05/20 12:25:14;;;;;;;3.67;2.83;;;39.10;26.40;;;;;;5093566;28;20873;-68
2023/05/20 12:27:40;;;;;;;3.60;3.33;;;40.00;26.40;;;;;;5092897;28;20427;-68
2023/05/20 12:30:08;;;;;;;4.33;3.80;;;41.20;25.50;;;;;;5093330;28;20806;-68
2023/05/20 12:32:34;;;;;;;3.57;3.27;;;41.80;24.80;;;;;;5093020;28;20425;-68
2023/05/20 12:35:00;;;;;;;3.07;2.80;;;42.00;24.60;;;;;;5093233;28;20382;-68
2023/05/20 12:37:25;;;;;;;4.50;3.40;;;42.00;24.60;;;;;;5092722;28;20419;-68
2023/05/20 12:39:51;;;;;;;3.03;2.60;;;41.90;24.60;;;;;;5093072;28;20610;-68
2023/05/20 12:42:16;;;;;;;3.77;3.47;;;42.00;24.90;;;;;;5093002;28;20177;-68
2023/05/20 12:44:42;;;;;;;3.00;2.70;;;42.40;24.90;;;;;;5092976;28;20178;-68
2023/05/20 12:47:08;;;;;;;3.67;3.37;;;42.50;24.60;;;;;;5092693;28;20238;-67